createdAt,value
2023-11-17T00:00:06.848Z,87.88
2023-11-17T00:02:34.636Z,87.96
2023-11-17T00:05:02.277Z,88.01
2023-11-17T00:07:30.045Z,88.09
2023-11-17T00:09:58.016Z,88.03
2023-11-17T00:12:25.676Z,88.05
2023-11-17T00:14:53.257Z,87.97
2023-11-17T00:17:20.791Z,87.94
2023-11-17T00:19:48.761Z,88.06
2023-11-17T00:22:16.357Z,88.12
2023-11-17T00:24:44.044Z,88.03
2023-11-17T00:27:11.619Z,88.20
2023-11-17T00:29:39.117Z,88.05
2023-11-17T00:32:07.248Z,88.07
2023-11-17T00:34:34.878Z,88.13
2023-11-17T00:37:04.375Z,88.04
2023-11-17T00:39:32.753Z,88.01
2023-11-17T00:42:00.297Z,87.92
2023-11-17T00:44:28.149Z,87.96
2023-11-17T00:46:56.464Z,88.12
2023-11-17T00:49:24.144Z,88.13
2023-11-17T00:51:52.284Z,88.19
2023-11-17T00:54:20.096Z,88.18
2023-11-17T00:56:48.028Z,88.25
2023-11-17T00:59:15.547Z,88.28
2023-11-17T01:01:43.139Z,88.25
2023-11-17T01:04:10.788Z,88.33
2023-11-17T01:06:38.336Z,88.35
2023-11-17T01:09:05.872Z,88.37
2023-11-17T01:11:33.394Z,88.41
2023-11-17T01:14:01.005Z,88.42
2023-11-17T01:16:28.610Z,88.36
2023-11-17T01:18:56.164Z,88.43
2023-11-17T01:21:23.714Z,88.46
2023-11-17T01:23:51.254Z,88.58
2023-11-17T01:26:18.799Z,88.50
2023-11-17T01:28:46.332Z,88.36
2023-11-17T01:31:14.237Z,88.65
2023-11-17T01:33:41.785Z,88.57
2023-11-17T01:36:09.297Z,88.55
2023-11-17T01:38:46.500Z,88.55
2023-11-17T01:41:18.396Z,88.83
2023-11-17T01:43:46.020Z,88.63
2023-11-17T01:46:13.755Z,88.90
2023-11-17T01:48:41.325Z,88.96
2023-11-17T01:51:08.981Z,88.75
2023-11-17T01:53:36.566Z,88.84
2023-11-17T01:56:04.165Z,88.94
2023-11-17T01:58:31.828Z,88.93
2023-11-17T02:00:59.368Z,88.93
2023-11-17T02:03:26.981Z,88.99
2023-11-17T02:05:54.951Z,89.01
2023-11-17T02:08:22.884Z,88.96
2023-11-17T02:10:50.404Z,89.02
2023-11-17T02:13:17.935Z,89.01
2023-11-17T02:15:45.507Z,89.01
2023-11-17T02:18:13.069Z,89.04
2023-11-17T02:20:40.602Z,88.98
2023-11-17T02:23:08.113Z,89.06
2023-11-17T02:25:35.626Z,89.20
2023-11-17T02:28:03.281Z,89.16
2023-11-17T02:30:30.843Z,89.18
2023-11-17T02:32:58.545Z,89.18
2023-11-17T02:35:26.722Z,89.06
2023-11-17T02:37:54.566Z,89.16
2023-11-17T02:40:22.153Z,89.28
2023-11-17T02:42:49.767Z,89.29
2023-11-17T02:45:17.395Z,89.27
2023-11-17T02:47:44.962Z,89.40
2023-11-17T02:50:12.515Z,89.20
2023-11-17T02:52:40.188Z,89.34
2023-11-17T02:55:07.807Z,89.33
2023-11-17T02:57:35.718Z,89.21
2023-11-17T03:00:03.691Z,89.34
2023-11-17T03:02:31.352Z,89.29
2023-11-17T03:04:58.883Z,89.52
2023-11-17T03:07:26.559Z,89.27
2023-11-17T03:09:54.285Z,89.27
2023-11-17T03:12:21.845Z,89.36
2023-11-17T03:14:49.741Z,89.38
2023-11-17T03:17:17.280Z,89.49
2023-11-17T03:19:44.859Z,89.47
2023-11-17T03:22:12.502Z,89.37
2023-11-17T03:24:40.009Z,89.36
2023-11-17T03:27:07.515Z,89.27
2023-11-17T03:29:35.138Z,89.26
2023-11-17T03:32:02.866Z,89.22
2023-11-17T03:34:31.249Z,89.53
2023-11-17T03:36:59.489Z,89.39
2023-11-17T03:39:27.002Z,89.36
2023-11-17T03:41:55.027Z,89.55
2023-11-17T03:44:22.567Z,89.49
2023-11-17T03:46:50.244Z,89.48
2023-11-17T03:49:18.051Z,89.44
2023-11-17T03:51:45.578Z,89.52
2023-11-17T03:54:13.087Z,89.45
2023-11-17T03:56:40.705Z,89.38
2023-11-17T03:59:08.278Z,89.54
2023-11-17T04:01:36.032Z,89.59
2023-11-17T04:04:03.704Z,89.54
2023-11-17T04:06:31.295Z,89.65
2023-11-17T04:08:58.851Z,89.56
2023-11-17T04:11:26.538Z,89.36
2023-11-17T04:13:54.061Z,89.62
2023-11-17T04:16:21.720Z,89.64
2023-11-17T04:18:49.353Z,89.58
2023-11-17T04:21:16.910Z,89.57
2023-11-17T04:23:44.406Z,89.62
2023-11-17T04:26:11.985Z,89.46
2023-11-17T04:28:39.509Z,89.51
2023-11-17T04:31:07.013Z,89.72
2023-11-17T04:33:34.645Z,89.64
2023-11-17T04:36:02.175Z,89.62
2023-11-17T04:38:29.685Z,89.77
2023-11-17T04:40:57.320Z,89.80
2023-11-17T04:43:24.858Z,89.74
2023-11-17T04:45:52.574Z,89.77
2023-11-17T04:48:20.546Z,89.62
2023-11-17T04:50:48.042Z,89.86
2023-11-17T04:53:15.599Z,89.68
2023-11-17T04:55:43.397Z,89.67
2023-11-17T04:58:10.948Z,89.83
2023-11-17T05:00:38.530Z,89.77
2023-11-17T05:03:06.192Z,89.77
2023-11-17T05:05:33.786Z,89.74
2023-11-17T05:08:01.322Z,89.60
2023-11-17T05:10:28.898Z,89.71
2023-11-17T05:12:56.456Z,89.69
2023-11-17T05:15:24.053Z,89.78
2023-11-17T05:17:51.895Z,89.65
2023-11-17T05:20:19.482Z,89.70
2023-11-17T05:22:47.130Z,89.75
2023-11-17T05:25:14.771Z,89.80
2023-11-17T05:27:42.453Z,89.76
2023-11-17T05:30:10.124Z,89.75
2023-11-17T05:32:37.721Z,89.71
2023-11-17T05:35:05.294Z,89.67
2023-11-17T05:37:32.964Z,89.72
2023-11-17T05:40:00.600Z,89.65
2023-11-17T05:42:28.317Z,89.62
2023-11-17T05:44:55.893Z,89.66
2023-11-17T05:47:23.562Z,89.66
2023-11-17T05:49:51.120Z,89.79
2023-11-17T05:52:18.767Z,89.65
2023-11-17T05:54:46.374Z,89.85
2023-11-17T05:57:13.879Z,89.76
2023-11-17T05:59:41.511Z,89.68
2023-11-17T06:02:09.139Z,89.71
2023-11-17T06:04:36.753Z,89.70
2023-11-17T06:07:04.341Z,89.76
2023-11-17T06:09:31.951Z,89.77
2023-11-17T06:11:59.485Z,89.75
2023-11-17T06:14:27.178Z,89.76
2023-11-17T06:16:55.006Z,89.86
2023-11-17T06:19:22.713Z,89.74
2023-11-17T06:21:50.450Z,89.85
2023-11-17T06:24:18.041Z,89.82
2023-11-17T06:26:45.602Z,89.78
2023-11-17T06:29:13.183Z,89.81
2023-11-17T06:31:41.506Z,89.83
2023-11-17T06:34:09.180Z,89.74
2023-11-17T06:36:38.186Z,89.76
2023-11-17T06:39:11.852Z,89.77
2023-11-17T06:41:39.327Z,89.60
2023-11-17T06:44:06.861Z,89.72
2023-11-17T06:46:34.476Z,89.63
2023-11-17T06:49:02.131Z,89.74
2023-11-17T06:51:29.654Z,89.68
2023-11-17T06:53:57.306Z,89.55
2023-11-17T06:56:25.046Z,89.58
2023-11-17T06:58:52.640Z,89.63
2023-11-17T07:01:21.330Z,89.72
2023-11-17T07:03:49.916Z,89.76
2023-11-17T07:06:17.529Z,89.79
2023-11-17T07:08:45.196Z,89.81
2023-11-17T07:11:12.720Z,89.68
2023-11-17T07:13:40.350Z,89.59
2023-11-17T07:16:07.994Z,89.65
2023-11-17T07:18:35.762Z,89.87
2023-11-17T07:21:03.471Z,89.96
2023-11-17T07:23:31.057Z,89.90
2023-11-17T07:25:58.626Z,89.91
2023-11-17T07:28:26.264Z,89.97
2023-11-17T07:30:53.895Z,89.94
2023-11-17T07:33:21.525Z,90.03
2023-11-17T07:35:49.060Z,90.07
2023-11-17T07:38:16.626Z,90.16
2023-11-17T07:40:44.427Z,90.13
2023-11-17T07:43:12.051Z,90.10
2023-11-17T07:45:39.621Z,90.15
2023-11-17T07:48:07.196Z,90.13
2023-11-17T07:50:34.857Z,90.02
2023-11-17T07:53:02.338Z,90.15
2023-11-17T07:55:30.199Z,90.15
2023-11-17T07:57:58.157Z,90.20
2023-11-17T08:00:25.722Z,90.20
2023-11-17T08:02:53.473Z,90.25
2023-11-17T08:05:21.752Z,90.21
2023-11-17T08:07:49.354Z,90.21
2023-11-17T08:10:16.965Z,90.28
2023-11-17T08:12:44.841Z,90.28
2023-11-17T08:15:12.403Z,90.28
2023-11-17T08:17:39.964Z,90.40
2023-11-17T08:20:07.963Z,90.43
2023-11-17T08:22:35.606Z,90.40
2023-11-17T08:25:03.355Z,90.48
2023-11-17T08:27:30.992Z,90.45
2023-11-17T08:29:58.515Z,90.48
2023-11-17T08:32:26.091Z,90.54
2023-11-17T08:34:53.682Z,90.56
2023-11-17T08:37:21.247Z,90.45
2023-11-17T08:39:48.748Z,90.58
2023-11-17T08:42:17.359Z,90.58
2023-11-17T08:44:45.103Z,90.47
2023-11-17T08:47:12.695Z,90.54
2023-11-17T08:49:40.360Z,90.49
2023-11-17T08:52:07.898Z,90.49
2023-11-17T08:54:35.670Z,90.47
2023-11-17T08:57:03.230Z,90.55
2023-11-17T08:59:30.749Z,90.46
2023-11-17T09:01:58.425Z,90.48
2023-11-17T09:04:26.019Z,90.58
2023-11-17T09:06:53.560Z,90.38
2023-11-17T09:09:28.551Z,90.42
2023-11-17T09:11:58.562Z,90.45
2023-11-17T09:14:28.863Z,90.29
2023-11-17T09:16:58.992Z,90.35
2023-11-17T09:19:26.764Z,90.36
2023-11-17T09:21:54.325Z,90.26
2023-11-17T09:24:21.942Z,90.30
2023-11-17T09:26:49.506Z,90.24
2023-11-17T09:29:17.126Z,90.35
2023-11-17T09:31:44.953Z,90.31
2023-11-17T09:34:12.625Z,90.40
2023-11-17T09:36:40.892Z,90.34
2023-11-17T09:39:08.534Z,90.33
2023-11-17T09:41:36.116Z,90.23
2023-11-17T09:44:03.619Z,90.41
2023-11-17T09:46:31.121Z,90.29
2023-11-17T09:48:58.670Z,90.31
2023-11-17T09:51:26.242Z,90.36
2023-11-17T09:53:55.816Z,90.50
2023-11-17T09:56:23.617Z,90.40
2023-11-17T09:58:51.281Z,90.28
2023-11-17T10:01:19.093Z,90.21
2023-11-17T10:03:46.774Z,90.29
2023-11-17T10:06:14.493Z,90.32
2023-11-17T10:08:42.020Z,90.32
2023-11-17T10:11:09.522Z,90.28
2023-11-17T10:13:37.281Z,90.38
2023-11-17T10:16:04.904Z,90.30
2023-11-17T10:18:32.452Z,90.46
2023-11-17T10:21:00.153Z,90.36
2023-11-17T10:23:27.966Z,90.38
2023-11-17T10:25:56.378Z,90.26
2023-11-17T10:31:18.366Z,90.47
2023-11-17T10:33:44.691Z,90.26
2023-11-17T10:36:11.029Z,90.16
2023-11-17T10:38:37.479Z,90.10
2023-11-17T10:41:04.109Z,90.19
2023-11-17T10:43:30.760Z,90.26
2023-11-17T10:45:56.991Z,90.09
2023-11-17T10:48:23.229Z,90.19
2023-11-17T10:50:49.385Z,90.21
2023-11-17T10:53:15.568Z,90.19
2023-11-17T10:55:42.392Z,90.15
2023-11-17T10:58:08.620Z,90.21
2023-11-17T11:00:34.888Z,90.13
2023-11-17T11:03:01.236Z,90.07
2023-11-17T11:05:27.567Z,90.13
2023-11-17T11:07:53.730Z,90.06
2023-11-17T11:10:19.898Z,90.08
2023-11-17T11:12:46.078Z,90.08
2023-11-17T11:15:12.287Z,90.10
2023-11-17T11:17:38.515Z,90.02
2023-11-17T11:20:21.206Z,90.23
2023-11-17T11:22:49.326Z,90.21
2023-11-17T11:25:15.790Z,90.09
2023-11-17T11:27:42.018Z,89.96
2023-11-17T11:30:08.265Z,89.93
2023-11-17T11:32:34.487Z,89.90
2023-11-17T11:35:00.712Z,89.94
2023-11-17T11:37:27.024Z,89.89
2023-11-17T11:39:53.972Z,89.89
2023-11-17T11:42:20.180Z,89.98
2023-11-17T11:44:46.326Z,89.73
2023-11-17T11:47:12.532Z,89.77
2023-11-17T11:49:38.885Z,89.89
2023-11-17T11:52:05.131Z,89.99
2023-11-17T11:54:31.436Z,89.85
2023-11-17T11:56:57.898Z,89.88
2023-11-17T11:59:24.530Z,89.86
2023-11-17T12:01:50.667Z,89.76
2023-11-17T12:04:17.018Z,89.77
2023-11-17T12:06:47.244Z,89.78
2023-11-17T12:09:16.420Z,89.75
2023-11-17T12:11:43.064Z,89.78
2023-11-17T12:14:09.385Z,89.78
2023-11-17T12:16:35.728Z,89.73
2023-11-17T12:19:02.545Z,89.58
2023-11-17T12:21:28.900Z,89.55
2023-11-17T12:23:55.090Z,89.42
2023-11-17T12:26:21.292Z,89.30
2023-11-17T12:28:47.569Z,89.60
2023-11-17T12:31:13.788Z,89.35
2023-11-17T12:33:39.999Z,89.20
2023-11-17T12:36:06.259Z,89.22
2023-11-17T12:38:32.456Z,89.01
2023-11-17T12:40:58.897Z,89.03
2023-11-17T12:43:25.143Z,89.12
2023-11-17T12:45:51.322Z,89.04
2023-11-17T12:48:17.961Z,88.96
2023-11-17T12:50:44.129Z,88.92
2023-11-17T12:53:10.331Z,88.85
2023-11-17T12:55:37.562Z,88.92
2023-11-17T12:58:03.958Z,89.09
2023-11-17T13:00:30.150Z,89.14
2023-11-17T13:02:56.575Z,88.92
2023-11-17T13:05:24.134Z,89.08
2023-11-17T13:07:51.852Z,89.01
2023-11-17T13:10:18.109Z,88.87
2023-11-17T13:12:44.422Z,88.75
2023-11-17T13:15:11.139Z,88.69
2023-11-17T13:17:37.895Z,88.70
2023-11-17T13:20:04.419Z,88.61
2023-11-17T13:22:31.592Z,88.77
2023-11-17T13:24:57.741Z,88.66
2023-11-17T13:27:23.952Z,88.93
2023-11-17T13:29:50.137Z,88.80
2023-11-17T13:32:16.389Z,88.52
2023-11-17T13:34:42.676Z,88.59
2023-11-17T13:37:09.377Z,88.61
2023-11-17T13:39:35.566Z,88.49
2023-11-17T13:42:01.706Z,88.61
2023-11-17T13:44:31.456Z,88.17
2023-11-17T13:46:59.183Z,88.34
2023-11-17T13:49:25.657Z,88.53
2023-11-17T13:51:51.863Z,88.51
2023-11-17T13:54:18.064Z,88.49
2023-11-17T13:56:44.383Z,88.59
2023-11-17T13:59:10.649Z,88.48
2023-11-17T14:01:37.443Z,88.46
2023-11-17T14:04:04.116Z,88.46
2023-11-17T14:06:30.447Z,88.51
2023-11-17T14:08:56.667Z,88.31
2023-11-17T14:11:22.801Z,88.25
2023-11-17T14:13:49.030Z,88.02
2023-11-17T14:16:15.492Z,88.09
2023-11-17T14:18:41.672Z,87.89
2023-11-17T14:21:07.907Z,87.94
2023-11-17T14:23:34.124Z,88.10
2023-11-17T14:26:00.270Z,88.19
2023-11-17T14:28:26.478Z,88.04
2023-11-17T14:30:52.725Z,88.22
2023-11-17T14:33:19.146Z,88.05
2023-11-17T14:35:45.332Z,88.02
2023-11-17T14:38:11.485Z,88.02
2023-11-17T14:40:37.829Z,87.61
2023-11-17T14:43:04.061Z,88.05
2023-11-17T14:45:30.744Z,87.84
2023-11-17T14:47:57.156Z,87.48
2023-11-17T14:50:23.489Z,87.76
2023-11-17T14:52:49.828Z,87.89
2023-11-17T14:55:16.109Z,87.67
2023-11-17T14:57:42.473Z,87.75
2023-11-17T15:00:08.808Z,87.84
2023-11-17T15:02:35.549Z,87.94
2023-11-17T15:05:01.676Z,87.71
2023-11-17T15:07:28.343Z,87.65
2023-11-17T15:09:54.618Z,87.70
2023-11-17T15:12:20.898Z,87.55
2023-11-17T15:14:47.088Z,87.75
2023-11-17T15:17:13.334Z,87.67
2023-11-17T15:19:41.025Z,87.96
2023-11-17T15:22:08.581Z,87.89
2023-11-17T15:24:34.748Z,87.68
2023-11-17T15:27:01.059Z,87.68
2023-11-17T15:29:27.279Z,87.64
2023-11-17T15:31:54.776Z,87.69
2023-11-17T15:34:21.364Z,87.65
2023-11-17T15:36:47.712Z,87.43
2023-11-17T15:39:13.891Z,87.71
2023-11-17T15:41:40.065Z,87.77
2023-11-17T15:44:08.174Z,87.84
2023-11-17T15:46:34.966Z,88.02
2023-11-17T15:49:01.206Z,87.97
2023-11-17T15:51:27.638Z,87.99
2023-11-17T15:53:54.125Z,87.58
2023-11-17T15:56:20.293Z,87.64
2023-11-17T15:58:46.478Z,87.64
2023-11-17T16:01:12.691Z,87.65
2023-11-17T16:03:39.017Z,87.80
2023-11-17T16:06:05.246Z,87.85
2023-11-17T16:08:31.451Z,87.79
2023-11-17T16:10:57.625Z,87.88
2023-11-17T16:13:24.217Z,87.57
2023-11-17T16:15:50.487Z,87.73
2023-11-17T16:18:16.918Z,87.54
2023-11-17T16:20:43.496Z,87.67
2023-11-17T16:23:09.671Z,87.70
2023-11-17T16:25:36.350Z,87.79
2023-11-17T16:28:02.493Z,87.45
2023-11-17T16:30:28.660Z,87.72
2023-11-17T16:32:55.296Z,87.89
2023-11-17T16:35:23.313Z,87.89
2023-11-17T16:37:49.771Z,87.81
2023-11-17T16:40:16.060Z,87.92
2023-11-17T16:42:43.606Z,87.98
2023-11-17T16:45:11.325Z,87.82
2023-11-17T16:47:37.531Z,87.62
2023-11-17T16:50:04.400Z,87.44
2023-11-17T16:52:30.625Z,87.30
2023-11-17T16:54:56.943Z,87.32
2023-11-17T16:57:23.139Z,87.50
2023-11-17T16:59:49.313Z,87.47
2023-11-17T17:02:16.129Z,87.49
2023-11-17T17:04:42.553Z,87.32
2023-11-17T17:07:08.756Z,87.23
2023-11-17T17:09:34.984Z,87.19
2023-11-17T17:12:01.459Z,87.27
2023-11-17T17:14:28.066Z,87.41
2023-11-17T17:16:54.528Z,87.54
2023-11-17T17:19:21.098Z,87.46
2023-11-17T17:21:47.329Z,87.33
2023-11-17T17:24:13.895Z,87.06
2023-11-17T17:26:40.117Z,87.25
2023-11-17T17:29:06.275Z,87.05
2023-11-17T17:31:32.516Z,87.33
2023-11-17T17:33:58.744Z,87.00
2023-11-17T17:36:24.882Z,86.92
2023-11-17T17:38:51.288Z,87.17
2023-11-17T17:41:17.507Z,87.22
2023-11-17T17:43:44.093Z,87.01
2023-11-17T17:46:10.317Z,87.02
2023-11-17T17:48:36.522Z,87.05
2023-11-17T17:51:03.120Z,86.94
2023-11-17T17:53:29.623Z,87.01
2023-11-17T17:55:55.873Z,86.92
2023-11-17T17:58:22.177Z,87.02
2023-11-17T18:00:48.444Z,86.87
2023-11-17T18:03:14.762Z,86.98
2023-11-17T18:05:41.269Z,86.49
2023-11-17T18:08:07.502Z,86.87
2023-11-17T18:10:33.681Z,87.06
2023-11-17T18:12:59.877Z,86.56
2023-11-17T18:15:26.077Z,86.81
2023-11-17T18:17:53.499Z,86.62
2023-11-17T18:20:20.386Z,86.94
2023-11-17T18:22:46.594Z,87.10
2023-11-17T18:25:12.862Z,86.97
2023-11-17T18:27:39.136Z,86.88
2023-11-17T18:30:05.310Z,86.73
2023-11-17T18:32:31.558Z,86.91
2023-11-17T18:34:57.872Z,86.99
2023-11-17T18:37:24.063Z,86.77
2023-11-17T18:39:52.261Z,86.72
2023-11-17T18:42:19.084Z,86.92
2023-11-17T18:44:45.397Z,87.10
2023-11-17T18:47:11.564Z,87.15
2023-11-17T18:49:37.724Z,86.99
2023-11-17T18:52:04.552Z,86.94
2023-11-17T18:54:30.797Z,87.19
2023-11-17T18:56:57.090Z,87.50
2023-11-17T18:59:23.315Z,87.03
2023-11-17T19:01:49.662Z,87.20
2023-11-17T19:04:15.907Z,86.96
2023-11-17T19:06:42.128Z,87.09
2023-11-17T19:09:08.249Z,86.97
2023-11-17T19:11:34.452Z,86.98
2023-11-17T19:14:00.726Z,87.02
2023-11-17T19:16:27.491Z,87.07
2023-11-17T19:18:53.643Z,87.02
2023-11-17T19:21:19.884Z,86.83
2023-11-17T19:23:46.040Z,87.03
2023-11-17T19:26:12.233Z,87.12
2023-11-17T19:28:38.829Z,86.96
2023-11-17T19:31:05.040Z,86.82
2023-11-17T19:33:31.287Z,86.94
2023-11-17T19:36:04.378Z,87.02
2023-11-17T19:38:35.688Z,86.79
2023-11-17T19:41:01.843Z,87.15
2023-11-17T19:43:28.031Z,86.93
2023-11-17T19:45:54.277Z,87.04
2023-11-17T19:48:20.934Z,86.96
2023-11-17T19:50:47.095Z,86.88
2023-11-17T19:53:13.230Z,87.14
2023-11-17T19:55:39.525Z,87.14
2023-11-17T19:58:05.718Z,87.07
2023-11-17T20:00:31.937Z,87.02
2023-11-17T20:02:58.753Z,87.02
2023-11-17T20:05:25.307Z,86.93
2023-11-17T20:07:52.260Z,86.85
2023-11-17T20:10:18.536Z,86.88
2023-11-17T20:12:45.253Z,87.08
2023-11-17T20:15:11.471Z,86.89
2023-11-17T20:17:48.683Z,87.02
2023-11-17T20:20:20.880Z,87.22
2023-11-17T20:22:47.443Z,87.05
2023-11-17T20:25:13.669Z,87.22
2023-11-17T20:27:39.913Z,87.04
2023-11-17T20:30:06.095Z,87.06
2023-11-17T20:32:34.371Z,87.02
2023-11-17T20:35:00.843Z,87.34
2023-11-17T20:37:27.111Z,87.30
2023-11-17T20:39:53.266Z,87.07
2023-11-17T20:42:19.458Z,86.93
2023-11-17T20:44:45.699Z,86.86
2023-11-17T20:47:11.917Z,86.91
2023-11-17T20:49:38.239Z,86.88
2023-11-17T20:52:04.442Z,87.04
2023-11-17T20:54:30.668Z,86.99
2023-11-17T20:56:56.791Z,87.15
2023-11-17T20:59:22.975Z,86.90
2023-11-17T21:01:49.653Z,86.99
2023-11-17T21:04:15.924Z,86.98
2023-11-17T21:06:42.507Z,86.90
2023-11-17T21:09:08.728Z,86.98
2023-11-17T21:11:34.982Z,87.09
2023-11-17T21:14:01.590Z,87.00
2023-11-17T21:16:28.064Z,87.02
2023-11-17T21:18:54.215Z,86.90
2023-11-17T21:21:20.389Z,86.90
2023-11-17T21:23:46.647Z,86.94
2023-11-17T21:26:13.105Z,87.19
2023-11-17T21:28:39.618Z,87.19
2023-11-17T21:31:05.816Z,87.11
2023-11-17T21:33:32.021Z,87.22
2023-11-17T21:35:58.181Z,87.40
2023-11-17T21:38:24.341Z,87.44
2023-11-17T21:40:50.496Z,87.16
2023-11-17T21:43:17.183Z,87.45
2023-11-17T21:45:43.409Z,87.40
2023-11-17T21:48:09.996Z,87.59
2023-11-17T21:50:36.634Z,87.64
2023-11-17T21:53:03.360Z,87.55
2023-11-17T21:55:29.734Z,87.44
2023-11-17T21:57:56.177Z,87.66
2023-11-17T22:00:22.413Z,87.73
2023-11-17T22:02:48.849Z,87.92
2023-11-17T22:05:15.857Z,87.75
2023-11-17T22:07:42.158Z,87.93
2023-11-17T22:10:08.385Z,87.66
2023-11-17T22:12:34.548Z,88.14
2023-11-17T22:15:00.703Z,87.80
2023-11-17T22:17:26.978Z,87.76
2023-11-17T22:19:53.619Z,87.89
2023-11-17T22:22:19.817Z,87.95
2023-11-17T22:24:46.091Z,88.03
2023-11-17T22:27:12.493Z,88.01
2023-11-17T22:29:38.739Z,87.98
2023-11-17T22:32:04.996Z,87.78
2023-11-17T22:34:31.276Z,88.23
2023-11-17T22:36:57.479Z,87.93
2023-11-17T22:39:23.635Z,87.91
2023-11-17T22:41:49.772Z,88.03
2023-11-17T22:44:16.419Z,88.08
2023-11-17T22:46:42.769Z,88.15
2023-11-17T22:49:08.988Z,88.01
2023-11-17T22:51:35.379Z,88.03
2023-11-17T22:54:04.119Z,87.92
2023-11-17T22:56:30.590Z,88.01
2023-11-17T22:58:56.848Z,88.01
2023-11-17T23:01:23.076Z,88.00
2023-11-17T23:03:49.369Z,88.02
2023-11-17T23:06:15.590Z,88.06
2023-11-17T23:08:41.746Z,87.99
2023-11-17T23:11:08.108Z,88.05
2023-11-17T23:13:34.250Z,88.00
2023-11-17T23:16:00.494Z,88.05
2023-11-17T23:18:27.646Z,87.91
2023-11-17T23:20:53.916Z,88.00
2023-11-17T23:23:20.099Z,88.14
2023-11-17T23:25:46.338Z,87.87
2023-11-17T23:28:12.584Z,87.94
2023-11-17T23:30:38.780Z,87.96
2023-11-17T23:33:04.945Z,88.27
2023-11-17T23:35:31.268Z,88.08
2023-11-17T23:37:57.470Z,88.02
2023-11-17T23:40:23.665Z,88.08
2023-11-17T23:42:50.249Z,88.10
2023-11-17T23:45:16.500Z,88.30
2023-11-17T23:47:43.135Z,88.26
2023-11-17T23:50:09.299Z,87.94
2023-11-17T23:52:35.470Z,88.10
2023-11-17T23:55:02.019Z,88.16
2023-11-17T23:57:28.222Z,88.12
2023-11-17T23:59:54.446Z,88.08
